createdAt,value
2023-03-31T00:04:05.760Z,98799.55
2023-03-31T00:09:19.071Z,98801.77
2023-03-31T00:14:22.157Z,98798.73
2023-03-31T00:19:25.161Z,98812.46
2023-03-31T00:24:32.816Z,98817.92
2023-03-31T00:29:36.193Z,98818.79
2023-03-31T00:34:39.091Z,98814.82
2023-03-31T00:39:43.413Z,98819.14
2023-03-31T00:45:09.578Z,98812.65
2023-03-31T00:50:19.009Z,98807.10
2023-03-31T00:55:27.016Z,98797.59
2023-03-31T01:00:30.474Z,98796.59
2023-03-31T01:05:40.033Z,98792.71
2023-03-31T01:10:48.063Z,98785.91
2023-03-31T01:15:51.546Z,98785.17
2023-03-31T01:20:57.248Z,98780.77
2023-03-31T01:26:22.839Z,98779.55
2023-03-31T01:31:56.612Z,98777.53
2023-03-31T01:37:37.812Z,98778.69
2023-03-31T01:42:57.692Z,98788.06
2023-03-31T01:48:21.273Z,98792.11
2023-03-31T01:53:45.403Z,98791.17
2023-03-31T01:58:58.965Z,98784.62
2023-03-31T02:04:09.935Z,98780.67
2023-03-31T02:09:19.908Z,98782.91
2023-03-31T02:14:26.674Z,98781.59
2023-03-31T02:19:40.167Z,98779.59
2023-03-31T02:24:46.105Z,98779.54
2023-03-31T02:29:49.737Z,98780.05
2023-03-31T02:34:53.958Z,98775.48
2023-03-31T02:40:00.542Z,98762.42
2023-03-31T02:45:08.343Z,98770.34
2023-03-31T02:50:11.202Z,98782.97
2023-03-31T02:55:37.718Z,98776.48
2023-03-31T03:00:55.315Z,98777.65
2023-03-31T03:06:13.916Z,98786.33
2023-03-31T03:11:39.314Z,98788.27
2023-03-31T03:16:48.058Z,98786.05
2023-03-31T03:21:50.788Z,98780.82
2023-03-31T03:26:53.462Z,98777.64
2023-03-31T03:31:56.149Z,98780.98
2023-03-31T03:36:58.856Z,98780.92
2023-03-31T03:42:01.591Z,98781.66
2023-03-31T03:47:04.440Z,98780.78
2023-03-31T03:52:07.777Z,98775.15
2023-03-31T03:57:11.019Z,98778.52
2023-03-31T04:02:14.524Z,98778.36
2023-03-31T04:07:17.705Z,98767.46
2023-03-31T04:12:20.501Z,98770.30
2023-03-31T04:17:33.268Z,98774.45
2023-03-31T04:22:41.048Z,98776.07
2023-03-31T04:27:55.198Z,98767.73
2023-03-31T04:33:00.781Z,98758.23
2023-03-31T04:38:03.547Z,98754.27
2023-03-31T04:43:06.398Z,98746.26
2023-03-31T04:48:09.693Z,98739.92
2023-03-31T04:53:12.498Z,98747.43
2023-03-31T04:58:15.511Z,98746.96
2023-03-31T05:03:19.248Z,98742.91
2023-03-31T05:08:22.019Z,98742.44
2023-03-31T05:13:25.143Z,98747.15
2023-03-31T05:18:28.016Z,98756.85
2023-03-31T05:23:31.263Z,98749.35
2023-03-31T05:28:34.686Z,98743.71
2023-03-31T05:33:42.225Z,98741.27
2023-03-31T05:38:45.917Z,98746.31
2023-03-31T05:43:48.666Z,98745.48
2023-03-31T05:48:51.416Z,98735.44
2023-03-31T05:53:54.837Z,98732.02
2023-03-31T05:59:00.559Z,98744.27
2023-03-31T06:04:03.497Z,98744.30
2023-03-31T06:09:06.719Z,98743.75
2023-03-31T06:14:09.483Z,98756.49
2023-03-31T06:19:12.324Z,98760.65
2023-03-31T06:24:15.020Z,98770.55
2023-03-31T06:29:17.695Z,98772.23
2023-03-31T06:34:21.499Z,98764.08
2023-03-31T06:39:28.329Z,98771.61
2023-03-31T06:44:32.192Z,98771.25
2023-03-31T06:49:35.478Z,98774.30
2023-03-31T06:54:38.455Z,98781.10
2023-03-31T06:59:41.491Z,98792.94
2023-03-31T07:04:44.405Z,98794.06
2023-03-31T07:09:48.367Z,98794.91
2023-03-31T07:14:52.575Z,98796.91
2023-03-31T07:19:55.646Z,98802.13
2023-03-31T07:24:58.330Z,98797.94
2023-03-31T07:30:01.432Z,98797.79
2023-03-31T07:35:04.108Z,98806.51
2023-03-31T07:40:07.960Z,98810.69
2023-03-31T07:45:10.997Z,98808.07
2023-03-31T07:50:14.512Z,98807.98
2023-03-31T07:55:17.974Z,98799.30
2023-03-31T08:00:21.321Z,98796.98
2023-03-31T08:05:25.925Z,98792.45
2023-03-31T08:10:32.311Z,98782.74
2023-03-31T08:20:28.452Z,98795.38
2023-03-31T08:25:31.936Z,98793.60
2023-03-31T08:30:34.750Z,98805.27
2023-03-31T08:35:38.099Z,98802.84
2023-03-31T08:40:41.687Z,98810.51
2023-03-31T08:45:47.844Z,98803.25
2023-03-31T08:51:04.823Z,98800.73
2023-03-31T08:56:15.412Z,98811.16
2023-03-31T09:01:47.716Z,98801.48
2023-03-31T09:07:09.426Z,98800.92
2023-03-31T09:12:21.057Z,98798.98
2023-03-31T09:17:39.126Z,98795.91
2023-03-31T09:22:47.115Z,98794.09
2023-03-31T09:27:53.204Z,98791.77
2023-03-31T09:33:17.393Z,98793.29
2023-03-31T09:38:20.144Z,98797.23
2023-03-31T09:43:26.565Z,98794.64
2023-03-31T09:48:35.199Z,98790.86
2023-03-31T09:53:47.428Z,98781.63
2023-03-31T09:58:50.341Z,98785.06
2023-03-31T10:03:54.904Z,98783.73
2023-03-31T10:09:01.592Z,98780.87
2023-03-31T10:14:13.649Z,98784.81
2023-03-31T10:19:28.485Z,98776.88
2023-03-31T10:24:42.910Z,98772.30
2023-03-31T10:29:45.767Z,98779.77
2023-03-31T10:34:49.009Z,98771.27
2023-03-31T10:40:07.397Z,98770.29
2023-03-31T10:45:37.023Z,98769.45
2023-03-31T10:50:43.942Z,98768.42
2023-03-31T10:56:16.307Z,98764.40
2023-03-31T11:01:34.652Z,98761.90
2023-03-31T11:07:01.159Z,98763.55
2023-03-31T11:12:19.223Z,98758.59
2023-03-31T11:17:43.177Z,98764.61
2023-03-31T11:23:04.451Z,98758.41
2023-03-31T11:28:36.580Z,98759.99
2023-03-31T11:34:03.203Z,98759.21
2023-03-31T11:39:42.943Z,98748.59
2023-03-31T11:44:53.169Z,98747.41
2023-03-31T11:50:00.482Z,98744.24
2023-03-31T11:55:21.565Z,98740.23
2023-03-31T12:00:29.671Z,98732.45
2023-03-31T12:05:38.255Z,98728.91
2023-03-31T12:10:55.914Z,98726.83
2023-03-31T12:16:05.173Z,98718.31
2023-03-31T12:21:10.402Z,98706.70
2023-03-31T12:26:13.146Z,98706.66
2023-03-31T12:31:23.538Z,98701.98
2023-03-31T12:36:41.455Z,98697.90
2023-03-31T12:42:03.081Z,98690.94
2023-03-31T12:47:21.380Z,98683.56
2023-03-31T12:52:36.847Z,98675.94
2023-03-31T12:57:39.526Z,98670.56
2023-03-31T13:02:42.510Z,98666.37
2023-03-31T13:07:45.477Z,98660.04
2023-03-31T13:13:00.986Z,98651.92
2023-03-31T13:18:06.398Z,98635.41
2023-03-31T13:23:21.529Z,98630.32
2023-03-31T13:28:34.391Z,98625.95
2023-03-31T13:33:41.183Z,98620.42
2023-03-31T13:38:46.777Z,98615.36
2023-03-31T13:43:58.445Z,98608.05
2023-03-31T13:49:22.662Z,98608.96
2023-03-31T13:54:46.065Z,98604.81
2023-03-31T14:00:12.492Z,98596.64
2023-03-31T14:06:04.481Z,98591.13
2023-03-31T14:11:33.523Z,98592.31
2023-03-31T14:16:44.201Z,98588.48
2023-03-31T14:22:13.497Z,98585.39
2023-03-31T14:28:01.365Z,98573.91
2023-03-31T14:33:25.147Z,98570.02
2023-03-31T14:38:29.840Z,98560.45
2023-03-31T14:43:39.981Z,98554.89
2023-03-31T14:48:47.452Z,98554.70
2023-03-31T14:53:56.567Z,98542.61
2023-03-31T14:59:04.118Z,98531.34
2023-03-31T15:04:14.455Z,98534.89
2023-03-31T15:09:27.439Z,98538.17
2023-03-31T15:20:40.176Z,98539.89
2023-03-31T15:25:44.479Z,98538.52
2023-03-31T15:36:22.830Z,98531.54
2023-03-31T15:41:31.872Z,98526.37
2023-03-31T15:46:43.828Z,98530.44
2023-03-31T15:51:47.951Z,98529.42
2023-03-31T15:56:51.361Z,98525.91
2023-03-31T16:01:56.801Z,98526.10
2023-03-31T16:07:09.282Z,98525.34
2023-03-31T16:12:17.706Z,98524.12
2023-03-31T16:17:27.714Z,98516.67
2023-03-31T16:22:37.975Z,98512.55
2023-03-31T16:27:43.976Z,98507.95
2023-03-31T16:33:01.755Z,98498.89
2023-03-31T16:38:07.006Z,98492.05
2023-03-31T16:43:36.323Z,98486.54
2023-03-31T16:48:39.062Z,98486.13
2023-03-31T16:53:42.035Z,98487.65
2023-03-31T16:58:45.235Z,98485.48
2023-03-31T17:03:48.585Z,98485.92
2023-03-31T17:08:51.484Z,98478.55
2023-03-31T17:13:56.688Z,98471.68
2023-03-31T17:18:59.513Z,98468.55
2023-03-31T17:29:25.686Z,98469.11
2023-03-31T17:34:29.042Z,98470.02
2023-03-31T17:39:32.230Z,98466.20
2023-03-31T17:44:35.174Z,98464.87
2023-03-31T17:49:38.530Z,98464.21
2023-03-31T17:54:42.051Z,98465.39
2023-03-31T17:59:45.164Z,98469.11
2023-03-31T18:04:47.968Z,98468.02
2023-03-31T18:09:51.814Z,98468.44
2023-03-31T18:14:58.229Z,98467.80
2023-03-31T18:20:01.024Z,98465.98
2023-03-31T18:25:04.104Z,98465.20
2023-03-31T18:30:08.520Z,98466.38
2023-03-31T18:35:11.496Z,98461.54
2023-03-31T18:40:15.043Z,98461.42
2023-03-31T18:45:18.739Z,98457.28
2023-03-31T18:50:23.356Z,98455.46
2023-03-31T18:55:26.680Z,98461.40
2023-03-31T19:00:29.922Z,98454.48
2023-03-31T19:05:33.047Z,98454.19
2023-03-31T19:10:36.588Z,98451.54
2023-03-31T19:15:39.320Z,98456.67
2023-03-31T19:20:42.345Z,98461.65
2023-03-31T19:25:45.025Z,98451.42
2023-03-31T19:30:49.756Z,98435.64
2023-03-31T19:35:52.886Z,98434.48
2023-03-31T19:40:56.021Z,98429.92
2023-03-31T19:46:00.624Z,98421.27
2023-03-31T19:51:04.462Z,98421.52
2023-03-31T19:56:10.230Z,98416.52
2023-03-31T20:01:23.407Z,98397.84
2023-03-31T20:06:27.328Z,98385.79
2023-03-31T20:11:32.085Z,98381.63
2023-03-31T20:16:35.542Z,98374.08
2023-03-31T20:21:39.116Z,98380.09
2023-03-31T20:26:42.098Z,98375.67
2023-03-31T20:31:44.884Z,98371.35
2023-03-31T20:36:49.482Z,98376.48
2023-03-31T20:41:52.685Z,98362.60
2023-03-31T20:46:56.424Z,98362.58
2023-03-31T20:52:01.328Z,98365.47
2023-03-31T20:57:06.209Z,98362.75
2023-03-31T21:02:12.868Z,98355.74
2023-03-31T21:07:15.692Z,98345.84
2023-03-31T21:12:19.709Z,98357.20
2023-03-31T21:17:22.518Z,98350.51
2023-03-31T21:22:25.407Z,98349.39
2023-03-31T21:27:28.095Z,98345.52
2023-03-31T21:32:31.442Z,98343.98
2023-03-31T21:37:34.356Z,98337.94
2023-03-31T21:42:37.552Z,98342.13
2023-03-31T21:47:40.148Z,98345.80
2023-03-31T21:52:46.383Z,98359.23
2023-03-31T21:57:49.972Z,98361.35
2023-03-31T22:03:22.151Z,98368.09
2023-03-31T22:08:33.239Z,98361.38
2023-03-31T22:13:52.401Z,98358.09
2023-03-31T22:18:55.179Z,98358.14
2023-03-31T22:24:00.074Z,98346.12
2023-03-31T22:29:02.842Z,98342.79
2023-03-31T22:34:05.554Z,98341.05
2023-03-31T22:39:10.353Z,98338.71
2023-03-31T22:44:13.051Z,98334.59
2023-03-31T22:49:15.861Z,98331.38
2023-03-31T22:54:18.655Z,98326.61
2023-03-31T22:59:21.612Z,98332.36
2023-03-31T23:04:24.458Z,98334.58
2023-03-31T23:09:27.233Z,98335.83
2023-03-31T23:14:29.944Z,98339.95
2023-03-31T23:19:33.676Z,98335.67
2023-03-31T23:24:36.359Z,98331.54
2023-03-31T23:29:39.182Z,98332.73
2023-03-31T23:34:42.482Z,98326.92
2023-03-31T23:39:45.603Z,98330.33
2023-03-31T23:44:48.285Z,98320.40
2023-03-31T23:49:51.178Z,98316.77
2023-03-31T23:54:53.883Z,98317.00
2023-03-31T23:59:56.655Z,98324.02
